Terminal Aerodrome Forecast
Issued by NWS

Home | Current Version | Previous Version | Text Only | Print | Product List | Glossary On
Versions: 1 2 3 4 5 6 7 8 9 10 11 12 13 14 15 16 17 18 19 20 21
000
FTUS43 KSGF 161120
TAFBBG
TAF
KBBG 161120Z 1612/1712 12008KT 1/2SM -SHRA FG OVC008 WS020/16040KT
      TEMPO 1612/1614 1/4SM FG OVC005
     FM161500 14009KT 2SM -SHRA BR OVC015
     FM161700 15009KT 4SM -SHRA BR OVC020
     FM162000 19007KT 6SM BR VCSH BKN035
     FM162300 20006KT P6SM BKN070
     FM171000 28007KT 3SM BR BKN008=

USA.gov is the U.S. government's official web portal to all federal, state and local government web resources and services.